Flight Track Log - Related Links

Times and Time Zones

All times are in EDT time to prevent confusion due to time zone crossing. See the GUJ334 flight status page for this flight to view local times or setup timezone preferences in your user account.

Time Position Orientation Groundspeed Altitude Reporting Facility
EDT Latitude Longitude Course Direction KTS MPH feet Rate Location/Type
Mon 11:00:00 PM 27.3562 76.5218 203° Southwest  Level Estimated
Mon 11:01:00 PM 27.2696 76.4808 203° Southwest  Level Estimated
Mon 11:02:00 PM 27.1831 76.4398 203° Southwest  Level Estimated
Mon 11:03:00 PM 27.0965 76.3989 203° Southwest  Level Estimated
Mon 11:04:00 PM 27.0099 76.3581 203° Southwest  Level Estimated
Mon 11:05:00 PM 26.9233 76.3173 203° Southwest  Level Estimated
Mon 11:06:00 PM 26.8367 76.2766 203° Southwest  Level Estimated
Mon 11:07:00 PM 26.7501 76.2359 203° Southwest  Level Estimated
Mon 11:08:00 PM 26.6635 76.1954 203° Southwest  Level Estimated
Mon 11:09:00 PM 26.5768 76.1548 203° Southwest  Level Estimated
Mon 11:10:00 PM 26.4902 76.1143 203° Southwest  Level Estimated
Mon 11:11:00 PM 26.4035 76.0740 203° Southwest  Level Estimated
Mon 11:12:00 PM 26.3169 76.0336 203° Southwest  Level Estimated
Mon 11:13:00 PM 26.2302 75.9933 203° Southwest  Level Estimated
Mon 11:14:00 PM 26.1435 75.9531 203° Southwest  Level Estimated
Mon 11:15:00 PM 26.0568 75.9129 203° Southwest  Level Estimated
Mon 11:16:00 PM 25.9701 75.8728 203° Southwest  Level Estimated
Mon 11:17:00 PM 25.8833 75.8328 203° Southwest  Level Estimated
Mon 11:18:00 PM 25.7966 75.7928 203° Southwest  Level Estimated
Mon 11:19:00 PM 25.7098 75.7529 203° Southwest  Level Estimated
Mon 11:20:00 PM 25.6231 75.7130 203° Southwest  Level Estimated
Mon 11:21:00 PM 25.5363 75.6732 202° Southwest  Level Estimated
Mon 11:22:00 PM 25.4495 75.6335 202° Southwest  Level Estimated
Mon 11:23:00 PM 25.3627 75.5938 202° Southwest  Level Estimated
Mon 11:24:00 PM 25.2759 75.5541 202° Southwest  Level Estimated
Mon 11:25:00 PM 25.1891 75.5145 202° Southwest  Level Estimated
Mon 11:26:00 PM 25.1023 75.4750 202° Southwest  Level Estimated
Mon 11:27:00 PM 25.0155 75.4355 202° Southwest  Level Estimated
Mon 11:28:00 PM 24.9286 75.3961 202° Southwest  Level Estimated
Mon 11:29:00 PM 24.8418 75.3568 202° Southwest  Level Estimated
Mon 11:30:00 PM 24.7549 75.3175 202° Southwest  Level Estimated
Mon 11:31:00 PM 24.6680 75.2782 202° Southwest  Level Estimated
Mon 11:32:00 PM 24.5811 75.2390 202° Southwest  Level Estimated
Mon 11:33:00 PM 24.4942 75.1999 202° Southwest  Level Estimated
Mon 11:34:00 PM 24.4073 75.1608 202° Southwest  Level Estimated
Mon 11:35:00 PM 24.3204 75.1217 202° Southwest  Level Estimated
Mon 11:36:00 PM 24.2335 75.0828 202° Southwest  Level Estimated
Mon 11:37:00 PM 24.1465 75.0438 202° Southwest  Level Estimated
Mon 11:38:00 PM 24.0596 75.0050 202° Southwest  Level Estimated
Mon 11:39:00 PM 23.9726 74.9661 202° Southwest  Level Estimated
Mon 11:40:00 PM 23.8856 74.9274 202° Southwest  Level Estimated
Mon 11:41:00 PM 23.7987 74.8887 202° Southwest  Level Estimated
Mon 11:42:00 PM 23.7117 74.8500 202° Southwest  Level Estimated
Mon 11:43:00 PM 23.6247 74.8114 202° Southwest  Level Estimated
Mon 11:44:00 PM 23.5377 74.7728 202° Southwest  Level Estimated
Mon 11:45:00 PM 23.4507 74.7343 202° Southwest  Level Estimated
Mon 11:46:00 PM 23.3636 74.6959 202° Southwest  Level Estimated
Mon 11:47:00 PM 23.2766 74.6574 202° Southwest  Level Estimated
Mon 11:48:00 PM 23.1896 74.6191 202° Southwest  Level Estimated
Mon 11:49:00 PM 23.1025 74.5808 202° Southwest  Level Estimated
Mon 11:50:00 PM 23.0155 74.5425 202° Southwest  Level Estimated
Mon 11:51:00 PM 22.9284 74.5043 202° Southwest  Level Estimated
Mon 11:52:00 PM 22.8413 74.4661 202° Southwest  Level Estimated
Mon 11:53:00 PM 22.7542 74.4280 202° Southwest  Level Estimated
Mon 11:54:00 PM 22.6671 74.3900 202° Southwest  Level Estimated
Mon 11:55:00 PM 22.5800 74.3520 202° Southwest  Level Estimated
Mon 11:56:00 PM 22.4929 74.3140 202° Southwest  Level Estimated
Mon 11:57:00 PM 22.4058 74.2761 202° Southwest  Level Estimated
Mon 11:58:00 PM 22.3186 74.2382 202° Southwest  Level Estimated
Mon 11:59:00 PM 22.2315 74.2004 202° Southwest  Level Estimated
Tue 12:00:00 AM 22.1444 74.1626 202° Southwest  Level Estimated
Tue 12:01:00 AM 22.0572 74.1249 202° Southwest  Level Estimated
Tue 12:02:00 AM 21.9700 74.0872 202° Southwest  Level Estimated
Tue 12:03:00 AM 21.8828 74.0495 202° Southwest  Level Estimated
Tue 12:04:00 AM 21.7957 74.0119 202° Southwest  Level Estimated
Tue 12:05:00 AM 21.7085 73.9744 202° Southwest  Level Estimated
Tue 12:06:00 AM 21.6213 73.9369 202° Southwest  Level Estimated
Tue 12:07:00 AM 21.5341 73.8994 202° Southwest  Level Estimated
Tue 12:08:00 AM 21.4468 73.8620 202° Southwest  Level Estimated
Tue 12:09:00 AM 21.3596 73.8247 202° Southwest  Level Estimated
Tue 12:10:00 AM 21.2724 73.7873 202° Southwest  Level Estimated
Tue 12:11:00 AM 21.1851 73.7501 202° Southwest  Level Estimated
Tue 12:12:00 AM 21.0979 73.7128 202° Southwest  Level Estimated
Tue 12:13:00 AM 21.0106 73.6756 202° Southwest  Level Estimated
Tue 12:14:00 AM 20.9233 73.6385 202° Southwest  Level Estimated
Tue 12:15:00 AM 20.8361 73.6014 202° Southwest  Level Estimated
Tue 12:16:00 AM 20.7488 73.5643 202° Southwest  Level Estimated
Tue 12:17:00 AM 20.6615 73.5273 202° Southwest  Level Estimated
Tue 12:18:00 AM 20.5742 73.4903 202° Southwest  Level Estimated
Tue 12:19:00 AM 20.4869 73.4534 202° Southwest  Level Estimated
Tue 12:20:00 AM 20.3996 73.4165 202° Southwest  Level Estimated
Tue 12:21:00 AM 20.3123 73.3797 202° Southwest  Level Estimated
Tue 12:22:00 AM 20.2249 73.3428 202° Southwest  Level Estimated
Tue 12:23:00 AM 20.1376 73.3061 202° Southwest  Level Estimated
Tue 12:24:00 AM 20.0502 73.2694 202° Southwest  Level Estimated
Tue 12:25:00 AM 19.9629 73.2327 202° Southwest  Level Estimated
Tue 12:26:00 AM 19.8755 73.1960 202° Southwest  Level Estimated
Tue 12:27:00 AM 19.7882 73.1594 202° Southwest  Level Estimated
Tue 12:28:00 AM 19.7008 73.1229 202° Southwest  Level Estimated
Tue 12:29:00 AM 19.6134 73.0863 201° Southwest  Level Estimated
Tue 12:30:00 AM 19.5260 73.0499 201° Southwest  Level Estimated
Tue 12:31:00 AM 19.4386 73.0134 201° Southwest  Level Estimated
Tue 12:32:00 AM 19.3512 72.9770 201° Southwest  Level Estimated
Tue 12:33:00 AM 19.2638 72.9406 201° Southwest  Level Estimated
Tue 12:34:00 AM 19.1764 72.9043 201° Southwest  Level Estimated
Tue 12:35:00 AM 19.0889 72.8680 201° Southwest  Level Estimated
Tue 12:36:00 AM 19.0887 72.8679 202° Southwest  Level Estimated
Tue 12:37:00 AM 19.0887 72.8679 193° South  Level Estimated
Tue 12:38:00 AM 19.0887 72.8679 193° South  Level Estimated
Tue 12:39:00 AM 19.0887 72.8679 193° South  Level Estimated
Tue 12:40:00 AM 19.0887 72.8679 193° South  Level Estimated
Tue 12:41:00 AM 19.0887 72.8679 193° South  Level Estimated
Tue 12:42:00 AM 19.0887 72.8679 193° South  Level Estimated
Tue 12:43:00 AM 19.0887 72.8679 193° South  Level Estimated

Login

Don't have an account? Register now (free) for customized features, flight alerts, and more!